Site contains unofficial IBTrACS data. Visit the IBTrACS Website to access archived data.

1958 Tropical Cyclone NOT_NAMED (1958039S08101)


IBTrACS version v04r00. Visit IBTrACS website for data access.
Please direct all questions to the IBTrACS Q and A forum

Storm track - Intensity - Wind Radii - Intensity Data - Source Data - All data

Summary Information

Storm ID 1958039S08101
Start Feb 7 16Z
Max Intensity 35 kt (Feb 12 16Z), 997 mb (Feb 14 12Z)
End Feb 15 04Z
ATCF IDs ,SH131958
Track status Best track data.

Storm track plot

Map of storm track

Intensity plots

Map of storm track

Radial wind information

No radial wind information for this storm


Position and Intensity Table

BASIN ISO_TIME_________ NATURE LAT LON WMO PRES USA WIND BOM PRES DS824 WIND TD9636 WIND
degrees north degrees east mb kts mb kts kts
SI 1958-02-07 16:00:00 NR -8.30 101.00 20
SI 18:00:00 TS -8.30 101.00 20 20 20
SI 21:00:00 TS -8.29 101.01 20 20 20
SI 1958-02-08 00:00:00 TS -8.31 100.99 20 20 20
SI 01:00:00 TS -8.33 100.97 1005 20 1005 20 20
SI 03:00:00 TS -8.38 100.92 20 1005 20 20
SI 04:00:00 TS -8.41 100.89 1005 20 1005 20 20
SI 06:00:00 TS -8.48 100.82 20 1005 20 19
SI 07:00:00 TS -8.51 100.78 1005 19 1005 19 18
SI 09:00:00 TS -8.58 100.71 17 1005 17 17
SI 10:00:00 TS -8.62 100.68 1005 16 1005 16 17
SI 12:00:00 TS -8.68 100.59 15 1005 15 16
SI 15:00:00 TS -8.79 100.45 15 1005 15 15
SI 16:00:00 TS -8.82 100.40 1005 15 1005 15 15
SI 18:00:00 TS -8.89 100.31 15 1005 15 15
SI 19:00:00 TS -8.92 100.27 1005 15 1005 15 16
SI 21:00:00 TS -8.99 100.18 17 1005 17 17
SI 22:00:00 TS -9.02 100.14 1005 18 1005 18 17
SI 1958-02-09 00:00:00 TS -9.08 100.06 20 1005 20 18
SI 01:00:00 TS -9.12 100.02 1005 20 1005 20 18
SI 03:00:00 TS -9.19 99.93 20 1005 20 19
SI 04:00:00 TS -9.23 99.89 20 1005 20 20
SI 06:00:00 TS -9.31 99.81 20 1005 20 20
SI 07:00:00 TS -9.34 99.78 1005 20 1005 20 21
SI 09:00:00 TS -9.41 99.72 22 1005 22 22
SI 10:00:00 TS -9.45 99.69 1005 23 1005 23 22
SI 12:00:00 TS -9.53 99.62 25 1005 25 23
SI 15:00:00 TS -9.66 99.49 25 1005 25 24
SI 16:00:00 TS -9.70 99.44 1005 25 1005 25 25
SI 18:00:00 TS -9.78 99.34 25 1005 25 23
SI 21:00:00 TS -9.89 99.17 22 1005 22 20
SI 22:00:00 TS -9.92 99.11 1005 21 1005 21 20
SI 1958-02-10 00:00:00 TS -9.98 98.96 20 1005 20 18
SI 01:00:00 TS -10.02 98.87 1005 19 1005 19 17
SI 03:00:00 TS -10.08 98.63 17 1005 17 15
SI 04:00:00 TS -10.12 98.48 1005 16 1005 16 15
SI 06:00:00 TS -10.20 98.16 15 1005 15 16
SI 07:00:00 TS -10.25 97.97 1005 16 1005 16 17
SI 09:00:00 TS -10.34 97.56 20 1005 20 19
SI 10:00:00 TS -10.39 97.34 1005 21 1005 21 20
SI 12:00:00 TS -10.49 96.91 25 1005 25 21
SI 15:00:00 TS -10.64 96.31 25 1005 25 24
SI 16:00:00 TS -10.70 96.11 1005 25 1005 25 25
SI 18:00:00 TS -10.81 95.74 25 1005 25 24
SI 21:00:00 TS -11.01 95.21 22 1005 22 22
SI 22:00:00 TS -11.07 95.05 1005 21 1005 21 22
SI 1958-02-11 00:00:00 TS -11.21 94.74 20 1005 20 21
SI 01:00:00 TS -11.27 94.61 1005 20 1005 20 21
SI 03:00:00 TS -11.41 94.39 20 1004 20 20
SI 04:00:00 TS -11.48 94.30 1004 20 1004 20 20
SI 06:00:00 TS -11.61 94.14 20 1004 20 18
SI 07:00:00 TS -11.69 94.06 1004 19 1004 19 17
SI 09:00:00 TS -11.84 93.94 17 1004 17 15
SI 10:00:00 TS -11.92 93.88 1004 16 1004 16 15
SI 12:00:00 TS -12.08 93.78 15 1004 15 13
SI 15:00:00 TS -12.33 93.64 12 1004 12 10
SI 16:00:00 TS -12.41 93.59 1004 11 1004 11 10
SI 18:00:00 TS -12.60 93.51 10 1004 10 10
SI 19:00:00 TS -12.70 93.47 1004 10 1004 10 10
SI 21:00:00 TS -12.90 93.39 10 1004 10 10
SI 22:00:00 TS -13.00 93.36 1004 10 1004 10 10
SI 1958-02-12 00:00:00 TS -13.20 93.29 10 1003 10 10
SI 01:00:00 TS -13.30 93.27 1003 10 1003 10 10
SI 03:00:00 TS -13.51 93.28 10 1003 10 10
SI 04:00:00 TS -13.61 93.29 1003 10 1003 10 10
SI 06:00:00 TS -13.79 93.34 10 1002 10 14
SI 07:00:00 TS -13.88 93.38 1002 13 1002 13 16
SI 09:00:00 TS -14.04 93.47 20 1002 20 20
SI 10:00:00 TS -14.11 93.52 1002 23 1002 23 22
SI 12:00:00 TS -14.25 93.63 30 1001 30 26
SI 15:00:00 TS -14.47 93.80 32 1001 32 32
SI 16:00:00 TS -14.55 93.85 1001 33 1001 33 35
SI 18:00:00 TS -14.72 93.95 35 1000 35 35
SI 21:00:00 TS -15.01 94.11 35 999 35 35
SI 22:00:00 TS -15.11 94.15 999 35 999 35 35
SI 1958-02-13 00:00:00 TS -15.29 94.19 35 998 35 35
SI 01:00:00 TS -15.38 94.18 998 35 998 35 35
SI 03:00:00 TS -15.53 94.06 35 998 35 35
SI 04:00:00 TS -15.60 93.97 35 998 35 35
SI 06:00:00 TS -15.71 93.74 35 998 35 32
SI 07:00:00 TS -15.76 93.62 998 33 998 33 31
SI 09:00:00 TS -15.83 93.36 30 998 30 28
SI 10:00:00 TS -15.86 93.23 998 28 998 28 27
SI 12:00:00 TS -15.93 92.94 25 998 25 24
SI 15:00:00 TS -16.05 92.52 22 998 22 21
SI 16:00:00 TS -16.10 92.38 998 21 998 21 20
SI 18:00:00 TS -16.21 92.11 20 998 20 20
SI 19:00:00 TS -16.27 91.98 998 20 998 20 21
SI 21:00:00 TS -16.41 91.71 22 998 22 22
SI 22:00:00 TS -16.48 91.58 998 23 998 23 22
SI 1958-02-14 00:00:00 TS -16.61 91.31 25 998 25 23
SI 01:00:00 TS -16.68 91.18 998 25 998 25 23
SI 03:00:00 TS -16.82 90.91 25 998 25 24
SI 04:00:00 TS -16.89 90.78 998 25 998 25 25
SI 06:00:00 TS -16.99 90.52 25 998 25 25
SI 07:00:00 TS -17.03 90.39 998 25 998 25 26
SI 09:00:00 TS -17.12 90.13 27 998 27 27
SI 10:00:00 TS -17.16 90.00 998 28 998 28 27
SI 12:00:00 TS -17.23 89.73 30 997 30 28
SI 15:00:00 TS -17.35 89.34 30 997 30 29
SI 16:00:00 TS -17.40 89.20 997 30 997 30 30
SI 18:00:00 TS -17.51 88.89 30 997 30 28
SI 19:00:00 TS -17.57 88.72 997 29 997 29 27
SI 21:00:00 TS -17.70 88.37 27 997 27 25
SI 1958-02-15 00:00:00 TS -17.91 87.80 25 997 25 23
SI 01:00:00 NR -17.99 87.62 997 997 22
SI 03:00:00 NR -18.13 87.21 997 20
SI 04:00:00 NR -18.20 87.00 998 998 20

Source Information

Agency Information
USA bsh131958.txt
TOKYO
CMA
HKO
NEWDELHI
REUNION
BOM IDCKMSTM0S.csv:Line=2489:unnamed
NADI
WELLINGTON
DS824 s_hem.dat:728:13S
TD9636 cons_worldwide_trop_cyclone_18710101-19891231-006:Line=5105
TD9635
NEUMANN
MLC

All available IBTrACS Data

SEASON BASIN SUBBASIN ISO_TIME_________ NATURE LAT LON WMO PRES WMO AGENCY DIST2LAND LANDFALL IFLAG USA AGENCY USA ATCF_ID USA LAT USA LON USA WIND USA SSHS BOM LAT BOM LON BOM PRES DS824 LAT DS824 LON DS824 STAGE DS824 WIND TD9636 LAT TD9636 LON TD9636 STAGE TD9636 WIND STORM SPEED STORM DIR
Year degrees north degrees east mb km km degrees north degrees east kts 1 degrees north degrees east mb degrees north degrees east kts degrees north degrees east kts kts degrees
1958 SI WA 1958-02-07 16:00:00 NR -8.30 101.00 467 467 __________O___ -1 -8.30 101.00 1 20 0 0
1958 SI WA 18:00:00 TS -8.30 101.00 467 467 O________OP___ jtwc_sh SH131958 -8.30 101.00 20 -1 -8.30 101.00 TC 20 -8.30 101.00 1 20 0 0
1958 SI WA 21:00:00 TS -8.29 101.01 467 467 P________PP___ SH131958 -8.28 101.02 20 -1 -8.28 101.02 TC 20 -8.31 101.00 1 20 0 0
1958 SI WA 1958-02-08 00:00:00 TS -8.31 100.99 467 467 O________OP___ jtwc_sh SH131958 -8.30 101.00 20 -1 -8.30 101.00 TC 20 -8.34 100.97 1 20 1 233
1958 SI WA 01:00:00 TS -8.33 100.97 1005 bom 467 467 P_____O__PP___ SH131958 -8.32 100.98 20 -1 -8.30 101.00 1005 -8.32 100.98 TC 20 -8.35 100.96 1 20 2 227
1958 SI WA 03:00:00 TS -8.38 100.92 482 482 P_____P__PP___ SH131958 -8.39 100.92 20 -1 -8.37 100.93 1005 -8.39 100.92 TC 20 -8.38 100.92 1 20 2 225
1958 SI WA 04:00:00 TS -8.41 100.89 1005 bom 482 482 P_____O__PO___ SH131958 -8.42 100.88 20 -1 -8.40 100.90 1005 -8.42 100.88 TC 20 -8.40 100.90 1 20 3 226
1958 SI WA 06:00:00 TS -8.48 100.82 498 498 O_____P__OP___ jtwc_sh SH131958 -8.50 100.80 20 -1 -8.47 100.83 1005 -8.50 100.80 TC 20 -8.45 100.84 1 19 3 227
1958 SI WA 07:00:00 TS -8.51 100.78 1005 bom 498 498 P_____O__PP___ SH131958 -8.53 100.77 19 -1 -8.50 100.80 1005 -8.53 100.77 TC 19 -8.48 100.80 1 18 3 225
1958 SI WA 09:00:00 TS -8.58 100.71 513 513 P_____P__PP___ SH131958 -8.60 100.71 17 -1 -8.57 100.74 1005 -8.60 100.71 TC 17 -8.54 100.72 1 17 3 227
1958 SI WA 10:00:00 TS -8.62 100.68 1005 bom 513 513 P_____O__PP___ SH131958 -8.63 100.67 16 -1 -8.60 100.70 1005 -8.63 100.67 TC 16 -8.58 100.68 1 17 3 230
1958 SI WA 12:00:00 TS -8.68 100.59 529 529 O_____P__OP___ jtwc_sh SH131958 -8.70 100.60 15 -1 -8.67 100.60 1005 -8.70 100.60 TC 15 -8.65 100.59 1 16 3 233
1958 SI WA 15:00:00 TS -8.79 100.45 550 550 P_____P__PP___ SH131958 -8.80 100.45 15 -1 -8.77 100.45 1005 -8.80 100.45 TC 15 -8.76 100.45 1 15 4 234
1958 SI WA 16:00:00 TS -8.82 100.40 1005 bom 550 550 P_____O__PO___ SH131958 -8.83 100.40 15 -1 -8.80 100.40 1005 -8.83 100.40 TC 15 -8.80 100.40 1 15 3 232
1958 SI WA 18:00:00 TS -8.89 100.31 566 566 O_____P__OP___ jtwc_sh SH131958 -8.90 100.30 15 -1 -8.87 100.34 1005 -8.90 100.30 TC 15 -8.86 100.32 1 15 3 231
1958 SI WA 19:00:00 TS -8.92 100.27 1005 bom 566 566 P_____O__PP___ SH131958 -8.93 100.26 15 -1 -8.90 100.30 1005 -8.93 100.26 TC 15 -8.90 100.27 1 16 3 233
1958 SI WA 21:00:00 TS -8.99 100.18 581 581 P_____P__PP___ SH131958 -9.00 100.20 17 -1 -8.97 100.16 1005 -9.00 100.20 TC 17 -8.96 100.19 1 17 3 232
1958 SI WA 22:00:00 TS -9.02 100.14 1005 bom 588 588 P_____O__PP___ SH131958 -9.03 100.17 18 -1 -9.00 100.10 1005 -9.03 100.17 TC 18 -8.99 100.15 1 17 3 230
1958 SI WA 1958-02-09 00:00:00 TS -9.08 100.06 597 597 O_____P__OP___ jtwc_sh SH131958 -9.10 100.10 20 -1 -9.06 100.03 1005 -9.10 100.10 TC 20 -9.06 100.07 1 18 3 229
1958 SI WA 01:00:00 TS -9.12 100.02 1005 bom 604 604 P_____O__PP___ SH131958 -9.13 100.05 20 -1 -9.10 100.00 1005 -9.13 100.05 TC 20 -9.09 100.02 1 18 3 229
1958 SI WA 03:00:00 TS -9.19 99.93 619 619 P_____P__PP___ SH131958 -9.20 99.95 20 -1 -9.20 99.93 1005 -9.20 99.95 TC 20 -9.16 99.94 1 19 3 228
1958 SI WA 04:00:00 TS -9.23 99.89 619 619 P_____P__PO___ SH131958 -9.23 99.90 20 -1 -9.25 99.90 1005 -9.23 99.90 TC 20 -9.20 99.90 1 20 3 225
1958 SI WA 06:00:00 TS -9.31 99.81 635 635 O_____P__OP___ jtwc_sh SH131958 -9.30 99.80 20 -1 -9.35 99.83 1005 -9.30 99.80 TC 20 -9.28 99.83 1 20 3 224
1958 SI WA 07:00:00 TS -9.34 99.78 1005 bom 635 635 P_____O__PP___ SH131958 -9.33 99.76 20 -1 -9.40 99.80 1005 -9.33 99.76 TC 20 -9.32 99.79 1 21 3 218
1958 SI WA 09:00:00 TS -9.41 99.72 650 650 P_____P__PP___ SH131958 -9.39 99.70 22 -1 -9.47 99.74 1005 -9.39 99.70 TC 22 -9.41 99.72 1 22 3 219
1958 SI WA 10:00:00 TS -9.45 99.69 1005 bom 659 659 P_____O__PP___ SH131958 -9.43 99.67 23 -1 -9.50 99.70 1005 -9.43 99.67 TC 23 -9.45 99.68 1 22 3 221
1958 SI WA 12:00:00 TS -9.53 99.62 666 666 O_____P__OP___ jtwc_sh SH131958 -9.50 99.60 25 -1 -9.57 99.61 1005 -9.50 99.60 TC 25 -9.54 99.60 1 23 3 223
1958 SI WA 15:00:00 TS -9.66 99.49 690 690 P_____P__PP___ SH131958 -9.65 99.47 25 -1 -9.67 99.45 1005 -9.65 99.47 TC 25 -9.66 99.46 1 24 4 226
1958 SI WA 16:00:00 TS -9.70 99.44 1005 bom 697 697 P_____O__PO___ SH131958 -9.70 99.41 25 -1 -9.70 99.40 1005 -9.70 99.41 TC 25 -9.70 99.40 1 25 4 230
1958 SI WA 18:00:00 TS -9.78 99.34 713 713 O_____P__OP___ jtwc_sh SH131958 -9.80 99.30 25 -1 -9.77 99.29 1005 -9.80 99.30 TC 25 -9.77 99.31 1 23 4 235
1958 SI WA 21:00:00 TS -9.89 99.17 728 728 P_____P__PP___ SH131958 -9.91 99.13 22 -1 -9.87 99.14 1005 -9.91 99.13 TC 22 -9.86 99.16 1 20 4 239
1958 SI WA 22:00:00 TS -9.92 99.11 1005 bom 735 735 P_____O__PP___ SH131958 -9.94 99.06 21 -1 -9.90 99.10 1005 -9.94 99.06 TC 21 -9.89 99.09 1 20 5 244
1958 SI WA 1958-02-10 00:00:00 TS -9.98 98.96 751 758 O_____P__OP___ jtwc_sh SH131958 -10.00 98.90 20 -1 -9.97 99.07 1005 -10.00 98.90 TC 20 -9.96 98.94 1 18 5 247
1958 SI WA 01:00:00 TS -10.02 98.87 1005 bom 758 758 P_____O__PP___ SH131958 -10.03 98.82 19 -1 -10.00 99.00 1005 -10.03 98.82 TC 19 -9.99 98.85 1 17 7 254
1958 SI WA 03:00:00 TS -10.08 98.63 786 786 P_____P__PP___ SH131958 -10.09 98.62 17 -1 -10.06 98.70 1005 -10.09 98.62 TC 17 -10.06 98.63 1 15 8 255
1958 SI WA 04:00:00 TS -10.12 98.48 1005 bom 793 793 P_____O__PO___ SH131958 -10.13 98.50 16 -1 -10.10 98.50 1005 -10.13 98.50 TC 16 -10.10 98.50 1 15 10 255
1958 SI WA 06:00:00 TS -10.20 98.16 822 829 O_____P__OP___ jtwc_sh SH131958 -10.20 98.20 15 -1 -10.24 98.11 1005 -10.20 98.20 TC 15 -10.18 98.17 1 16 11 255
1958 SI WA 07:00:00 TS -10.25 97.97 1005 bom 845 845 P_____O__PP___ SH131958 -10.24 98.01 16 -1 -10.30 97.90 1005 -10.24 98.01 TC 16 -10.23 97.98 1 17 12 257
1958 SI WA 09:00:00 TS -10.34 97.56 874 881 P_____P__PP___ SH131958 -10.34 97.58 20 -1 -10.37 97.50 1005 -10.34 97.58 TC 20 -10.32 97.58 1 19 13 258
1958 SI WA 10:00:00 TS -10.39 97.34 1005 bom 904 904 P_____O__PP___ SH131958 -10.39 97.35 21 -1 -10.40 97.30 1005 -10.39 97.35 TC 21 -10.37 97.37 1 20 13 257
1958 SI WA 12:00:00 TS -10.49 96.91 940 940 O_____P__OP___ jtwc_sh SH131958 -10.50 96.90 25 -1 -10.48 96.90 1005 -10.50 96.90 TC 25 -10.47 96.93 1 21 13 256
1958 SI WA 15:00:00 TS -10.64 96.31 992 1000 P_____P__PP___ SH131958 -10.64 96.33 25 -1 -10.64 96.29 1005 -10.64 96.33 TC 25 -10.64 96.30 1 24 12 255
1958 SI WA 16:00:00 TS -10.70 96.11 1005 bom 1015 1015 P_____O__PO___ SH131958 -10.69 96.15 25 -1 -10.70 96.10 1005 -10.69 96.15 TC 25 -10.70 96.10 1 25 12 253
1958 SI WA 18:00:00 TS -10.81 95.74 1053 1053 O_____P__OP___ jtwc_sh SH131958 -10.80 95.80 25 -1 -10.83 95.72 1005 -10.80 95.80 TC 25 -10.82 95.74 1 24 11 251
1958 SI WA 21:00:00 TS -11.01 95.21 1108 1108 P_____P__PP___ SH131958 -10.99 95.27 22 -1 -11.03 95.17 1005 -10.99 95.27 TC 22 -11.01 95.23 1 22 11 249
1958 SI WA 22:00:00 TS -11.07 95.05 1005 bom 1123 1123 P_____O__PP___ SH131958 -11.06 95.10 21 -1 -11.10 95.00 1005 -11.06 95.10 TC 21 -11.08 95.07 1 22 10 246
1958 SI WA 1958-02-11 00:00:00 TS -11.21 94.74 1159 1159 O_____P__OP___ jtwc_sh SH131958 -11.20 94.80 20 -1 -11.23 94.64 1005 -11.20 94.80 TC 20 -11.21 94.78 1 21 10 245
1958 SI WA 01:00:00 TS -11.27 94.61 1005 bom 1174 1174 P_____O__PP___ SH131958 -11.26 94.66 20 -1 -11.30 94.50 1005 -11.26 94.66 TC 20 -11.28 94.65 1 21 8 240
1958 SI WA 03:00:00 TS -11.41 94.39 1194 1194 P_____P__PP___ SH131958 -11.39 94.40 20 -1 -11.43 94.35 1004 -11.39 94.40 TC 20 -11.43 94.41 1 20 7 236
1958 SI WA 04:00:00 TS -11.48 94.30 1004 bom 1209 1209 P_____O__PO___ SH131958 -11.46 94.29 20 -1 -11.50 94.30 1004 -11.46 94.29 TC 20 -11.50 94.30 1 20 7 231
1958 SI WA 06:00:00 TS -11.61 94.14 1228 1228 O_____P__OP___ jtwc_sh SH131958 -11.60 94.10 20 -1 -11.63 94.17 1004 -11.60 94.10 TC 20 -11.64 94.11 1 18 6 228
1958 SI WA 07:00:00 TS -11.69 94.06 1004 bom 1238 1238 P_____O__PP___ SH131958 -11.68 94.03 19 -1 -11.70 94.10 1004 -11.68 94.03 TC 19 -11.71 94.03 1 17 6 221
1958 SI WA 09:00:00 TS -11.84 93.94 1258 1258 P_____P__PP___ SH131958 -11.84 93.92 17 -1 -11.83 93.96 1004 -11.84 93.92 TC 17 -11.85 93.89 1 15 6 217
1958 SI WA 10:00:00 TS -11.92 93.88 1004 bom 1268 1268 P_____O__PP___ SH131958 -11.93 93.88 16 -1 -11.90 93.90 1004 -11.93 93.88 TC 16 -11.92 93.84 1 15 6 212
1958 SI WA 12:00:00 TS -12.08 93.78 1293 1293 O_____P__OP___ jtwc_sh SH131958 -12.10 93.80 15 -1 -12.05 93.78 1004 -12.10 93.80 TC 15 -12.07 93.74 1 13 6 210
1958 SI WA 15:00:00 TS -12.33 93.64 1323 1323 P_____P__PP___ SH131958 -12.34 93.64 12 -1 -12.31 93.64 1004 -12.34 93.64 TC 12 -12.31 93.63 1 10 6 209
1958 SI WA 16:00:00 TS -12.41 93.59 1004 bom 1333 1333 P_____O__PO___ SH131958 -12.43 93.59 11 -1 -12.40 93.60 1004 -12.43 93.59 TC 11 -12.40 93.60 1 10 6 204
1958 SI WA 18:00:00 TS -12.60 93.51 1358 1358 O_____P__OP___ jtwc_sh SH131958 -12.60 93.50 10 -1 -12.60 93.53 1004 -12.60 93.50 TC 10 -12.59 93.51 1 10 6 204
1958 SI WA 19:00:00 TS -12.70 93.47 1004 bom 1368 1368 P_____O__PP___ SH131958 -12.69 93.46 10 -1 -12.70 93.50 1004 -12.69 93.46 TC 10 -12.69 93.46 1 10 6 201
1958 SI WA 21:00:00 TS -12.90 93.39 1393 1393 P_____P__PP___ SH131958 -12.89 93.38 10 -1 -12.90 93.44 1004 -12.89 93.38 TC 10 -12.90 93.39 1 10 6 199
1958 SI WA 22:00:00 TS -13.00 93.36 1004 bom 1403 1403 P_____O__PP___ SH131958 -12.99 93.35 10 -1 -13.00 93.40 1004 -12.99 93.35 TC 10 -13.00 93.36 1 10 6 198
1958 SI WA 1958-02-12 00:00:00 TS -13.20 93.29 1428 1428 O_____P__OP___ jtwc_sh SH131958 -13.20 93.30 10 -1 -13.20 93.25 1003 -13.20 93.30 TC 10 -13.21 93.32 1 10 6 194
1958 SI WA 01:00:00 TS -13.30 93.27 1003 bom 1436 1436 P_____O__PP___ SH131958 -13.31 93.28 10 -1 -13.30 93.20 1003 -13.31 93.28 TC 10 -13.31 93.30 1 10 6 0
1958 SI WA 03:00:00 TS -13.51 93.28 1452 1452 P_____P__PP___ SH131958 -13.51 93.26 10 -1 -13.50 93.25 1003 -13.51 93.26 TC 10 -13.51 93.29 1 10 6 175
1958 SI WA 04:00:00 TS -13.61 93.29 1003 bom 1460 1460 P_____O__PO___ SH131958 -13.62 93.27 10 -1 -13.60 93.30 1003 -13.62 93.27 TC 10 -13.60 93.30 1 10 6 166
1958 SI WA 06:00:00 TS -13.79 93.34 1477 1469 O_____P__OP___ jtwc_sh SH131958 -13.80 93.30 10 -1 -13.80 93.37 1002 -13.80 93.30 TC 10 -13.76 93.35 1 14 6 163
1958 SI WA 07:00:00 TS -13.88 93.38 1002 bom 1478 1478 P_____O__PP___ SH131958 -13.88 93.33 13 -1 -13.90 93.40 1002 -13.88 93.33 TC 13 -13.84 93.38 1 16 6 153
1958 SI WA 09:00:00 TS -14.04 93.47 1479 1487 P_____P__PP___ SH131958 -14.01 93.43 20 -1 -14.11 93.46 1002 -14.01 93.43 TC 20 -13.99 93.46 1 20 6 150
1958 SI WA 10:00:00 TS -14.11 93.52 1002 bom 1487 1487 P_____O__PP___ SH131958 -14.07 93.48 23 -1 -14.20 93.50 1002 -14.07 93.48 TC 23 -14.06 93.51 1 22 5 143
1958 SI WA 12:00:00 TS -14.25 93.63 1497 1490 O_____P__OP___ jtwc_sh SH131958 -14.20 93.60 30 -1 -14.32 93.59 1001 -14.20 93.60 TC 30 -14.20 93.61 1 26 5 143
1958 SI WA 15:00:00 TS -14.47 93.80 1499 1499 P_____P__PP___ SH131958 -14.43 93.75 32 -1 -14.44 93.75 1001 -14.43 93.75 TC 32 -14.42 93.76 1 32 5 144
1958 SI WA 16:00:00 TS -14.55 93.85 1001 bom 1499 1499 P_____O__PO___ SH131958 -14.52 93.80 33 -1 -14.50 93.80 1001 -14.52 93.80 TC 33 -14.50 93.80 2 35 6 150
1958 SI WA 18:00:00 TS -14.72 93.95 1509 1502 O_____P__OP___ jtwc_sh SH131958 -14.70 93.90 35 0 -14.68 93.89 1000 -14.70 93.90 TC 35 -14.69 93.90 2 35 6 152
1958 SI WA 21:00:00 TS -15.01 94.11 1520 1520 P_____P__PP___ SH131958 -15.01 94.11 35 0 -14.99 94.04 999 -15.01 94.11 TC 35 -14.98 94.03 2 35 7 154
1958 SI WA 22:00:00 TS -15.11 94.15 999 bom 1526 1518 P_____O__PP___ SH131958 -15.11 94.16 35 0 -15.10 94.10 999 -15.11 94.16 TC 35 -15.08 94.06 2 35 6 164
1958 SI WA 1958-02-13 00:00:00 TS -15.29 94.19 1531 1531 O_____P__OP___ jtwc_sh SH131958 -15.30 94.20 35 0 -15.31 94.26 998 -15.30 94.20 TC 35 -15.27 94.09 2 35 5 171
1958 SI WA 01:00:00 TS -15.38 94.18 998 bom 1538 1538 P_____O__PP___ SH131958 -15.38 94.17 35 0 -15.40 94.30 998 -15.38 94.17 TC 35 -15.36 94.09 2 35 5 208
1958 SI WA 03:00:00 TS -15.53 94.06 1553 1562 P_____P__PP___ SH131958 -15.53 94.03 35 0 -15.57 94.19 998 -15.53 94.03 TC 35 -15.53 94.05 2 35 6 222
1958 SI WA 04:00:00 TS -15.60 93.97 1569 1569 P_____P__PO___ SH131958 -15.59 93.93 35 0 -15.64 94.06 998 -15.59 93.93 TC 35 -15.60 94.00 2 35 7 240
1958 SI WA 06:00:00 TS -15.71 93.74 1601 1601 O_____P__OP___ jtwc_sh SH131958 -15.70 93.70 35 0 -15.75 93.76 998 -15.70 93.70 TC 35 -15.71 93.84 2 32 7 245
1958 SI WA 07:00:00 TS -15.76 93.62 998 bom 1616 1616 P_____O__PP___ SH131958 -15.74 93.58 33 -1 -15.80 93.60 998 -15.74 93.58 TC 33 -15.76 93.73 2 31 8 252
1958 SI WA 09:00:00 TS -15.83 93.36 1633 1642 P_____P__PP___ SH131958 -15.81 93.32 30 -1 -15.87 93.34 998 -15.81 93.32 TC 30 -15.84 93.48 2 28 8 254
1958 SI WA 10:00:00 TS -15.86 93.23 998 bom 1657 1657 P_____O__PP___ SH131958 -15.84 93.18 28 -1 -15.90 93.20 998 -15.84 93.18 TC 28 -15.87 93.33 2 27 8 256
1958 SI WA 12:00:00 TS -15.93 92.94 1680 1680 O_____P__OP___ jtwc_sh SH131958 -15.90 92.90 25 -1 -15.95 92.93 998 -15.90 92.90 TC 25 -15.94 93.03 2 24 8 255
1958 SI WA 15:00:00 TS -16.05 92.52 1717 1726 P_____P__PP___ SH131958 -16.03 92.50 22 -1 -16.05 92.53 998 -16.03 92.50 TC 22 -16.06 92.56 2 21 8 253
1958 SI WA 16:00:00 TS -16.10 92.38 998 bom 1733 1733 P_____O__PO___ SH131958 -16.09 92.37 21 -1 -16.10 92.40 998 -16.09 92.37 TC 21 -16.10 92.40 1 20 9 247
1958 SI WA 18:00:00 TS -16.21 92.11 1763 1763 O_____P__OP___ jtwc_sh SH131958 -16.20 92.10 20 -1 -16.23 92.13 998 -16.20 92.10 TC 20 -16.22 92.13 1 20 9 245
1958 SI WA 19:00:00 TS -16.27 91.98 998 bom 1778 1778 P_____O__PP___ SH131958 -16.26 91.97 20 -1 -16.30 92.00 998 -16.26 91.97 TC 20 -16.29 92.00 1 21 9 243
1958 SI WA 21:00:00 TS -16.41 91.71 1808 1808 P_____P__PP___ SH131958 -16.39 91.70 22 -1 -16.43 91.73 998 -16.39 91.70 TC 22 -16.43 91.73 1 22 9 242
1958 SI WA 22:00:00 TS -16.48 91.58 998 bom 1823 1823 P_____O__PP___ SH131958 -16.46 91.57 23 -1 -16.50 91.60 998 -16.46 91.57 TC 23 -16.50 91.60 1 22 9 242
1958 SI WA 1958-02-14 00:00:00 TS -16.61 91.31 1853 1853 O_____P__OP___ jtwc_sh SH131958 -16.60 91.30 25 -1 -16.63 91.33 998 -16.60 91.30 TC 25 -16.64 91.33 1 23 9 242
1958 SI WA 01:00:00 TS -16.68 91.18 998 bom 1868 1868 P_____O__PP___ SH131958 -16.67 91.17 25 -1 -16.70 91.20 998 -16.67 91.17 TC 25 -16.71 91.20 1 23 9 241
1958 SI WA 03:00:00 TS -16.82 90.91 1898 1898 P_____P__PP___ SH131958 -16.81 90.90 25 -1 -16.84 90.93 998 -16.81 90.90 TC 25 -16.84 90.93 1 24 9 242
1958 SI WA 04:00:00 TS -16.89 90.78 998 bom 1914 1914 P_____O__PO___ SH131958 -16.88 90.77 25 -1 -16.90 90.80 998 -16.88 90.77 TC 25 -16.90 90.80 1 25 8 246
1958 SI WA 06:00:00 TS -16.99 90.52 1943 1943 O_____P__OP___ jtwc_sh SH131958 -17.00 90.50 25 -1 -16.96 90.53 998 -17.00 90.50 TC 25 -16.99 90.56 1 25 8 249
1958 SI WA 07:00:00 TS -17.03 90.39 998 bom 1949 1949 P_____O__PP___ SH131958 -17.04 90.37 25 -1 -17.00 90.40 998 -17.04 90.37 TC 25 -17.03 90.44 1 26 8 251
1958 SI WA 09:00:00 TS -17.12 90.13 1975 1975 P_____P__PP___ SH131958 -17.11 90.10 27 -1 -17.13 90.13 998 -17.11 90.10 TC 27 -17.11 90.20 1 27 8 251
1958 SI MM 10:00:00 TS -17.16 90.00 998 bom 1990 1990 P_____O__PP___ SH131958 -17.14 89.97 28 -1 -17.20 90.00 998 -17.14 89.97 TC 28 -17.15 90.08 1 27 8 254
1958 SI MM 12:00:00 TS -17.23 89.73 2006 2006 O_____P__OP___ jtwc_sh SH131958 -17.20 89.70 30 -1 -17.27 89.73 997 -17.20 89.70 TC 30 -17.22 89.82 1 28 8 253
1958 SI MM 15:00:00 TS -17.35 89.34 2038 2047 P_____P__PP___ SH131958 -17.33 89.34 30 -1 -17.36 89.33 997 -17.33 89.34 TC 30 -17.35 89.37 1 29 8 252
1958 SI MM 16:00:00 TS -17.40 89.20 997 bom 2053 2053 P_____O__PO___ SH131958 -17.39 89.21 30 -1 -17.40 89.20 997 -17.39 89.21 TC 30 -17.40 89.20 1 30 9 249
1958 SI MM 18:00:00 TS -17.51 88.89 2080 2080 O_____P__OP___ jtwc_sh SH131958 -17.50 88.90 30 -1 -17.53 88.93 997 -17.50 88.90 TC 30 -17.51 88.83 1 28 10 249
1958 SI MM 19:00:00 TS -17.57 88.72 997 bom 2101 2101 P_____O__PP___ SH131958 -17.56 88.72 29 -1 -17.60 88.80 997 -17.56 88.72 TC 29 -17.57 88.62 1 27 11 248
1958 SI MM 21:00:00 TS -17.70 88.37 2127 2133 P_____P__PP___ SH131958 -17.69 88.30 27 -1 -17.73 88.55 997 -17.69 88.30 TC 27 -17.70 88.19 1 25 11 249
1958 SI MM 1958-02-15 00:00:00 TS -17.91 87.80 2182 2182 O_____P__OP___ jtwc_sh SH131958 -17.90 87.60 25 -1 -17.93 88.15 997 -17.90 87.60 TC 25 -17.91 87.49 1 23 11 248
1958 SI MM 01:00:00 NR -17.99 87.62 997 bom 2203 2203 ______O___P___ SH131958 -1 -18.00 88.00 997 TC -17.98 87.25 1 22 12 249
1958 SI MM 03:00:00 NR -18.13 87.21 2237 2237 ______P___P___ SH131958 -1 -18.13 87.67 997 TC -18.13 86.75 1 20 13 250
1958 SI MM 04:00:00 NR -18.20 87.00 998 bom 2258 ______O___O___ SH131958 -1 -18.20 87.50 998 TC -18.20 86.50 1 20 13 251